sensor_id;sensor_type;location;lat;lon;timestamp;P1;durP1;ratioP1;P2;durP2;ratioP2
65567;SDS011;52211;50.154;8.682;2023-02-28T00:01:36;3.60;;;3.30;;
65567;SDS011;52211;50.154;8.682;2023-02-28T00:04:05;3.60;;;3.40;;
65567;SDS011;52211;50.154;8.682;2023-02-28T00:06:35;3.67;;;3.43;;
65567;SDS011;52211;50.154;8.682;2023-02-28T00:09:08;3.77;;;3.47;;
65567;SDS011;52211;50.154;8.682;2023-02-28T00:11:38;3.53;;;3.20;;
65567;SDS011;52211;50.154;8.682;2023-02-28T00:14:07;3.27;;;3.07;;
65567;SDS011;52211;50.154;8.682;2023-02-28T00:16:41;3.83;;;3.53;;
65567;SDS011;52211;50.154;8.682;2023-02-28T00:19:10;3.13;;;2.93;;
65567;SDS011;52211;50.154;8.682;2023-02-28T00:21:39;3.20;;;3.00;;
65567;SDS011;52211;50.154;8.682;2023-02-28T00:24:07;3.50;;;3.20;;
65567;SDS011;52211;50.154;8.682;2023-02-28T00:26:38;4.00;;;3.53;;
65567;SDS011;52211;50.154;8.682;2023-02-28T00:29:05;3.20;;;3.00;;
65567;SDS011;52211;50.154;8.682;2023-02-28T00:31:34;3.30;;;3.10;;
65567;SDS011;52211;50.154;8.682;2023-02-28T00:34:02;4.90;;;3.40;;
65567;SDS011;52211;50.154;8.682;2023-02-28T00:36:32;4.33;;;3.93;;
65567;SDS011;52211;50.154;8.682;2023-02-28T00:39:04;4.33;;;3.60;;
65567;SDS011;52211;50.154;8.682;2023-02-28T00:41:31;4.17;;;3.50;;
65567;SDS011;52211;50.154;8.682;2023-02-28T00:44:02;3.23;;;3.00;;
65567;SDS011;52211;50.154;8.682;2023-02-28T00:46:32;3.27;;;3.07;;
65567;SDS011;52211;50.154;8.682;2023-02-28T00:49:03;3.40;;;3.10;;
65567;SDS011;52211;50.154;8.682;2023-02-28T00:51:34;3.10;;;2.90;;
65567;SDS011;52211;50.154;8.682;2023-02-28T00:54:01;4.00;;;3.60;;
65567;SDS011;52211;50.154;8.682;2023-02-28T00:56:30;3.00;;;2.80;;
65567;SDS011;52211;50.154;8.682;2023-02-28T00:58:59;3.00;;;2.80;;
65567;SDS011;52211;50.154;8.682;2023-02-28T01:01:29;3.37;;;3.17;;
65567;SDS011;52211;50.154;8.682;2023-02-28T01:03:57;4.10;;;3.80;;
65567;SDS011;52211;50.154;8.682;2023-02-28T01:06:24;4.10;;;3.60;;
65567;SDS011;52211;50.154;8.682;2023-02-28T01:08:52;4.03;;;3.63;;
65567;SDS011;52211;50.154;8.682;2023-02-28T01:11:19;3.67;;;3.47;;
65567;SDS011;52211;50.154;8.682;2023-02-28T01:13:51;3.37;;;3.13;;
65567;SDS011;52211;50.154;8.682;2023-02-28T01:16:19;3.47;;;3.27;;
65567;SDS011;52211;50.154;8.682;2023-02-28T01:18:46;3.60;;;3.33;;
65567;SDS011;52211;50.154;8.682;2023-02-28T01:21:17;4.30;;;3.30;;
65567;SDS011;52211;50.154;8.682;2023-02-28T01:23:49;3.53;;;3.20;;
65567;SDS011;52211;50.154;8.682;2023-02-28T01:26:20;3.90;;;3.60;;
65567;SDS011;52211;50.154;8.682;2023-02-28T01:28:52;4.47;;;3.60;;
65567;SDS011;52211;50.154;8.682;2023-02-28T01:31:20;3.43;;;3.23;;
65567;SDS011;52211;50.154;8.682;2023-02-28T01:33:53;3.70;;;3.40;;
65567;SDS011;52211;50.154;8.682;2023-02-28T01:36:27;5.57;;;3.80;;
65567;SDS011;52211;50.154;8.682;2023-02-28T01:38:55;3.50;;;3.30;;
65567;SDS011;52211;50.154;8.682;2023-02-28T01:41:26;3.40;;;3.10;;
65567;SDS011;52211;50.154;8.682;2023-02-28T01:47:07;3.40;;;3.20;;
65567;SDS011;52211;50.154;8.682;2023-02-28T01:49:33;4.30;;;3.90;;
65567;SDS011;52211;50.154;8.682;2023-02-28T01:52:03;3.93;;;3.63;;
65567;SDS011;52211;50.154;8.682;2023-02-28T01:54:31;4.70;;;3.40;;
65567;SDS011;52211;50.154;8.682;2023-02-28T01:57:04;3.53;;;3.33;;
65567;SDS011;52211;50.154;8.682;2023-02-28T02:02:38;3.90;;;3.53;;
65567;SDS011;52211;50.154;8.682;2023-02-28T02:05:12;4.47;;;4.17;;
65567;SDS011;52211;50.154;8.682;2023-02-28T02:07:44;4.67;;;3.80;;
65567;SDS011;52211;50.154;8.682;2023-02-28T02:10:20;3.90;;;3.63;;
65567;SDS011;52211;50.154;8.682;2023-02-28T02:18:52;4.00;;;3.70;;
65567;SDS011;52211;50.154;8.682;2023-02-28T02:22:27;5.97;;;3.33;;
65567;SDS011;52211;50.154;8.682;2023-02-28T02:37:15;3.50;;;3.17;;
65567;SDS011;52211;50.154;8.682;2023-02-28T02:40:00;3.63;;;3.33;;
65567;SDS011;52211;50.154;8.682;2023-02-28T02:42:51;4.20;;;3.90;;
65567;SDS011;52211;50.154;8.682;2023-02-28T02:45:25;3.77;;;3.47;;
65567;SDS011;52211;50.154;8.682;2023-02-28T02:48:05;5.93;;;3.60;;
65567;SDS011;52211;50.154;8.682;2023-02-28T02:50:51;3.70;;;3.40;;
65567;SDS011;52211;50.154;8.682;2023-02-28T02:53:27;3.77;;;3.50;;
65567;SDS011;52211;50.154;8.682;2023-02-28T02:56:07;3.73;;;3.43;;
65567;SDS011;52211;50.154;8.682;2023-02-28T02:58:41;3.80;;;3.50;;
65567;SDS011;52211;50.154;8.682;2023-02-28T03:01:17;4.00;;;3.70;;
65567;SDS011;52211;50.154;8.682;2023-02-28T03:03:55;6.70;;;4.03;;
65567;SDS011;52211;50.154;8.682;2023-02-28T03:06:30;3.77;;;3.50;;
65567;SDS011;52211;50.154;8.682;2023-02-28T03:08:57;3.83;;;3.53;;
65567;SDS011;52211;50.154;8.682;2023-02-28T03:11:28;4.13;;;3.50;;
65567;SDS011;52211;50.154;8.682;2023-02-28T03:28:18;4.80;;;3.60;;
65567;SDS011;52211;50.154;8.682;2023-02-28T03:30:53;4.63;;;3.50;;
65567;SDS011;52211;50.154;8.682;2023-02-28T03:34:06;3.23;;;3.03;;
65567;SDS011;52211;50.154;8.682;2023-02-28T03:36:47;4.10;;;3.80;;
65567;SDS011;52211;50.154;8.682;2023-02-28T03:39:27;3.53;;;3.33;;
65567;SDS011;52211;50.154;8.682;2023-02-28T03:42:14;3.60;;;3.40;;
65567;SDS011;52211;50.154;8.682;2023-02-28T03:44:49;3.40;;;3.17;;
65567;SDS011;52211;50.154;8.682;2023-02-28T03:47:32;3.83;;;3.53;;
65567;SDS011;52211;50.154;8.682;2023-02-28T03:50:30;3.90;;;3.60;;
65567;SDS011;52211;50.154;8.682;2023-02-28T03:55:48;3.10;;;2.90;;
65567;SDS011;52211;50.154;8.682;2023-02-28T04:01:18;3.67;;;3.37;;
65567;SDS011;52211;50.154;8.682;2023-02-28T04:04:07;3.70;;;3.40;;
65567;SDS011;52211;50.154;8.682;2023-02-28T04:06:36;3.57;;;3.37;;
65567;SDS011;52211;50.154;8.682;2023-02-28T04:09:06;4.27;;;3.87;;
65567;SDS011;52211;50.154;8.682;2023-02-28T04:11:44;4.37;;;4.00;;
65567;SDS011;52211;50.154;8.682;2023-02-28T04:14:21;4.03;;;3.73;;
65567;SDS011;52211;50.154;8.682;2023-02-28T04:16:49;4.67;;;4.27;;
65567;SDS011;52211;50.154;8.682;2023-02-28T04:19:19;3.73;;;3.43;;
65567;SDS011;52211;50.154;8.682;2023-02-28T04:21:52;4.20;;;3.80;;
65567;SDS011;52211;50.154;8.682;2023-02-28T04:24:21;4.97;;;4.57;;
65567;SDS011;52211;50.154;8.682;2023-02-28T04:26:54;4.27;;;3.97;;
65567;SDS011;52211;50.154;8.682;2023-02-28T04:29:28;4.43;;;4.03;;
65567;SDS011;52211;50.154;8.682;2023-02-28T04:32:01;5.00;;;4.03;;
65567;SDS011;52211;50.154;8.682;2023-02-28T04:34:33;4.33;;;4.03;;
65567;SDS011;52211;50.154;8.682;2023-02-28T04:37:01;3.90;;;3.60;;
65567;SDS011;52211;50.154;8.682;2023-02-28T04:39:39;4.03;;;3.73;;
65567;SDS011;52211;50.154;8.682;2023-02-28T04:42:10;4.43;;;4.03;;
65567;SDS011;52211;50.154;8.682;2023-02-28T04:44:40;4.33;;;3.93;;
65567;SDS011;52211;50.154;8.682;2023-02-28T04:47:09;4.63;;;3.90;;
65567;SDS011;52211;50.154;8.682;2023-02-28T04:49:39;4.33;;;4.03;;
65567;SDS011;52211;50.154;8.682;2023-02-28T04:52:10;4.03;;;3.70;;
65567;SDS011;52211;50.154;8.682;2023-02-28T04:54:39;4.07;;;3.77;;
65567;SDS011;52211;50.154;8.682;2023-02-28T04:57:06;4.50;;;4.07;;
65567;SDS011;52211;50.154;8.682;2023-02-28T04:59:33;4.40;;;4.10;;
65567;SDS011;52211;50.154;8.682;2023-02-28T05:02:00;4.43;;;3.90;;
65567;SDS011;52211;50.154;8.682;2023-02-28T05:04:35;4.40;;;4.10;;
65567;SDS011;52211;50.154;8.682;2023-02-28T05:07:05;4.37;;;4.03;;
65567;SDS011;52211;50.154;8.682;2023-02-28T05:09:32;4.43;;;4.13;;
65567;SDS011;52211;50.154;8.682;2023-02-28T05:12:01;4.30;;;3.90;;
65567;SDS011;52211;50.154;8.682;2023-02-28T05:14:28;4.60;;;4.20;;
65567;SDS011;52211;50.154;8.682;2023-02-28T05:16:57;4.80;;;4.40;;
65567;SDS011;52211;50.154;8.682;2023-02-28T05:19:28;4.33;;;4.03;;
65567;SDS011;52211;50.154;8.682;2023-02-28T05:21:58;3.93;;;3.63;;
65567;SDS011;52211;50.154;8.682;2023-02-28T05:24:28;4.43;;;3.73;;
65567;SDS011;52211;50.154;8.682;2023-02-28T05:26:58;5.43;;;4.40;;
65567;SDS011;52211;50.154;8.682;2023-02-28T05:29:27;5.80;;;4.10;;
65567;SDS011;52211;50.154;8.682;2023-02-28T05:31:54;4.13;;;3.73;;
65567;SDS011;52211;50.154;8.682;2023-02-28T05:34:23;6.47;;;4.23;;
65567;SDS011;52211;50.154;8.682;2023-02-28T05:36:50;4.00;;;3.70;;
65567;SDS011;52211;50.154;8.682;2023-02-28T05:39:17;3.93;;;3.63;;
65567;SDS011;52211;50.154;8.682;2023-02-28T05:41:45;3.87;;;3.57;;
65567;SDS011;52211;50.154;8.682;2023-02-28T05:44:17;4.33;;;3.73;;
65567;SDS011;52211;50.154;8.682;2023-02-28T05:46:46;4.57;;;4.13;;
65567;SDS011;52211;50.154;8.682;2023-02-28T05:49:13;3.53;;;3.33;;
65567;SDS011;52211;50.154;8.682;2023-02-28T05:51:42;4.43;;;3.87;;
65567;SDS011;52211;50.154;8.682;2023-02-28T05:54:11;3.80;;;3.50;;
65567;SDS011;52211;50.154;8.682;2023-02-28T05:56:43;4.30;;;3.43;;
65567;SDS011;52211;50.154;8.682;2023-02-28T05:59:14;4.20;;;3.90;;
65567;SDS011;52211;50.154;8.682;2023-02-28T06:01:43;4.23;;;3.80;;
65567;SDS011;52211;50.154;8.682;2023-02-28T06:04:15;4.63;;;3.73;;
65567;SDS011;52211;50.154;8.682;2023-02-28T06:06:57;5.73;;;3.40;;
65567;SDS011;52211;50.154;8.682;2023-02-28T06:09:24;4.40;;;4.00;;
65567;SDS011;52211;50.154;8.682;2023-02-28T06:11:51;3.63;;;3.33;;
65567;SDS011;52211;50.154;8.682;2023-02-28T06:14:22;4.17;;;3.83;;
65567;SDS011;52211;50.154;8.682;2023-02-28T06:16:54;3.47;;;3.17;;
65567;SDS011;52211;50.154;8.682;2023-02-28T06:19:24;3.63;;;3.33;;
65567;SDS011;52211;50.154;8.682;2023-02-28T06:21:57;4.10;;;3.80;;
65567;SDS011;52211;50.154;8.682;2023-02-28T06:24:30;5.90;;;4.00;;
65567;SDS011;52211;50.154;8.682;2023-02-28T06:27:02;3.40;;;3.20;;
65567;SDS011;52211;50.154;8.682;2023-02-28T06:29:34;3.93;;;3.53;;
65567;SDS011;52211;50.154;8.682;2023-02-28T06:32:02;5.23;;;3.67;;
65567;SDS011;52211;50.154;8.682;2023-02-28T06:34:36;4.20;;;3.80;;
65567;SDS011;52211;50.154;8.682;2023-02-28T06:37:02;4.60;;;3.70;;
65567;SDS011;52211;50.154;8.682;2023-02-28T06:39:34;4.17;;;3.80;;
65567;SDS011;52211;50.154;8.682;2023-02-28T06:42:03;3.90;;;3.60;;
65567;SDS011;52211;50.154;8.682;2023-02-28T06:44:30;4.07;;;3.77;;
65567;SDS011;52211;50.154;8.682;2023-02-28T06:47:02;3.97;;;3.60;;
65567;SDS011;52211;50.154;8.682;2023-02-28T06:49:34;4.17;;;3.80;;
65567;SDS011;52211;50.154;8.682;2023-02-28T06:52:07;3.67;;;3.27;;
65567;SDS011;52211;50.154;8.682;2023-02-28T06:54:37;3.77;;;3.47;;
65567;SDS011;52211;50.154;8.682;2023-02-28T06:57:10;4.97;;;3.33;;
65567;SDS011;52211;50.154;8.682;2023-02-28T06:59:39;4.17;;;3.20;;
65567;SDS011;52211;50.154;8.682;2023-02-28T07:02:11;3.63;;;3.33;;
65567;SDS011;52211;50.154;8.682;2023-02-28T07:04:38;3.77;;;3.47;;
65567;SDS011;52211;50.154;8.682;2023-02-28T07:07:06;4.80;;;3.93;;
65567;SDS011;52211;50.154;8.682;2023-02-28T07:09:38;4.90;;;4.40;;
65567;SDS011;52211;50.154;8.682;2023-02-28T07:12:09;4.30;;;3.50;;
65567;SDS011;52211;50.154;8.682;2023-02-28T07:14:38;4.30;;;3.70;;
65567;SDS011;52211;50.154;8.682;2023-02-28T07:17:10;3.70;;;3.33;;
65567;SDS011;52211;50.154;8.682;2023-02-28T07:19:38;3.73;;;3.43;;
65567;SDS011;52211;50.154;8.682;2023-02-28T07:22:07;3.73;;;3.43;;
65567;SDS011;52211;50.154;8.682;2023-02-28T07:24:34;3.90;;;3.60;;
65567;SDS011;52211;50.154;8.682;2023-02-28T07:27:09;4.90;;;3.67;;
65567;SDS011;52211;50.154;8.682;2023-02-28T07:29:38;4.57;;;3.90;;
65567;SDS011;52211;50.154;8.682;2023-02-28T07:32:07;4.23;;;3.83;;
65567;SDS011;52211;50.154;8.682;2023-02-28T07:34:34;3.60;;;3.40;;
65567;SDS011;52211;50.154;8.682;2023-02-28T07:37:05;4.30;;;3.67;;
65567;SDS011;52211;50.154;8.682;2023-02-28T07:39:32;3.77;;;3.47;;
65567;SDS011;52211;50.154;8.682;2023-02-28T07:41:59;4.67;;;4.27;;
65567;SDS011;52211;50.154;8.682;2023-02-28T07:44:28;4.20;;;3.80;;
65567;SDS011;52211;50.154;8.682;2023-02-28T07:46:55;5.83;;;4.20;;
65567;SDS011;52211;50.154;8.682;2023-02-28T07:49:22;4.30;;;3.90;;
65567;SDS011;52211;50.154;8.682;2023-02-28T07:51:49;4.07;;;3.67;;
65567;SDS011;52211;50.154;8.682;2023-02-28T07:54:18;7.10;;;4.50;;
65567;SDS011;52211;50.154;8.682;2023-02-28T07:56:45;5.00;;;4.47;;
65567;SDS011;52211;50.154;8.682;2023-02-28T07:59:16;4.27;;;3.90;;
65567;SDS011;52211;50.154;8.682;2023-02-28T08:01:46;4.50;;;4.10;;
65567;SDS011;52211;50.154;8.682;2023-02-28T08:04:13;4.40;;;3.97;;
65567;SDS011;52211;50.154;8.682;2023-02-28T08:06:39;7.13;;;4.80;;
65567;SDS011;52211;50.154;8.682;2023-02-28T08:09:06;4.60;;;4.10;;
65567;SDS011;52211;50.154;8.682;2023-02-28T08:11:36;4.40;;;4.00;;
65567;SDS011;52211;50.154;8.682;2023-02-28T08:14:03;4.47;;;3.50;;
65567;SDS011;52211;50.154;8.682;2023-02-28T08:16:29;4.67;;;4.00;;
65567;SDS011;52211;50.154;8.682;2023-02-28T08:18:59;4.87;;;4.20;;
65567;SDS011;52211;50.154;8.682;2023-02-28T08:21:26;4.97;;;3.73;;
65567;SDS011;52211;50.154;8.682;2023-02-28T08:23:56;3.90;;;3.60;;
65567;SDS011;52211;50.154;8.682;2023-02-28T08:26:23;4.73;;;4.17;;
65567;SDS011;52211;50.154;8.682;2023-02-28T08:28:54;3.73;;;3.30;;
65567;SDS011;52211;50.154;8.682;2023-02-28T08:31:26;3.47;;;3.17;;
65567;SDS011;52211;50.154;8.682;2023-02-28T08:33:53;4.37;;;4.07;;
65567;SDS011;52211;50.154;8.682;2023-02-28T08:36:23;4.20;;;3.50;;
65567;SDS011;52211;50.154;8.682;2023-02-28T08:38:54;5.97;;;4.10;;
65567;SDS011;52211;50.154;8.682;2023-02-28T08:41:25;4.00;;;3.70;;
65567;SDS011;52211;50.154;8.682;2023-02-28T08:43:57;5.23;;;4.03;;
65567;SDS011;52211;50.154;8.682;2023-02-28T08:46:24;4.00;;;3.67;;
65567;SDS011;52211;50.154;8.682;2023-02-28T08:48:52;3.13;;;2.93;;
65567;SDS011;52211;50.154;8.682;2023-02-28T08:51:21;4.00;;;3.60;;
65567;SDS011;52211;50.154;8.682;2023-02-28T08:53:53;4.27;;;3.87;;
65567;SDS011;52211;50.154;8.682;2023-02-28T08:56:26;4.20;;;3.80;;
65567;SDS011;52211;50.154;8.682;2023-02-28T08:58:56;4.13;;;3.73;;
65567;SDS011;52211;50.154;8.682;2023-02-28T09:01:25;4.33;;;3.83;;
65567;SDS011;52211;50.154;8.682;2023-02-28T09:03:58;3.83;;;3.53;;
65567;SDS011;52211;50.154;8.682;2023-02-28T09:06:30;4.10;;;3.27;;
65567;SDS011;52211;50.154;8.682;2023-02-28T09:09:01;5.20;;;4.00;;
65567;SDS011;52211;50.154;8.682;2023-02-28T09:11:29;4.23;;;3.67;;
65567;SDS011;52211;50.154;8.682;2023-02-28T09:13:59;5.30;;;3.70;;
65567;SDS011;52211;50.154;8.682;2023-02-28T09:16:30;3.93;;;3.63;;
65567;SDS011;52211;50.154;8.682;2023-02-28T09:18:59;3.60;;;3.30;;
65567;SDS011;52211;50.154;8.682;2023-02-28T09:21:30;3.80;;;3.37;;
65567;SDS011;52211;50.154;8.682;2023-02-28T09:23:57;4.00;;;3.67;;
65567;SDS011;52211;50.154;8.682;2023-02-28T09:26:27;3.93;;;3.63;;
65567;SDS011;52211;50.154;8.682;2023-02-28T09:29:07;6.00;;;3.37;;
65567;SDS011;52211;50.154;8.682;2023-02-28T09:31:35;4.03;;;3.73;;
65567;SDS011;52211;50.154;8.682;2023-02-28T09:34:06;3.87;;;3.43;;
65567;SDS011;52211;50.154;8.682;2023-02-28T09:36:35;4.50;;;4.10;;
65567;SDS011;52211;50.154;8.682;2023-02-28T09:39:11;4.50;;;3.83;;
65567;SDS011;52211;50.154;8.682;2023-02-28T09:41:47;5.07;;;4.57;;
65567;SDS011;52211;50.154;8.682;2023-02-28T09:44:26;4.33;;;3.80;;
65567;SDS011;52211;50.154;8.682;2023-02-28T09:47:26;4.03;;;3.60;;
65567;SDS011;52211;50.154;8.682;2023-02-28T09:52:50;4.50;;;4.00;;
65567;SDS011;52211;50.154;8.682;2023-02-28T09:55:33;4.33;;;3.83;;
65567;SDS011;52211;50.154;8.682;2023-02-28T10:01:10;4.70;;;3.90;;
65567;SDS011;52211;50.154;8.682;2023-02-28T10:06:36;4.70;;;4.07;;
65567;SDS011;52211;50.154;8.682;2023-02-28T10:09:30;4.07;;;3.67;;
65567;SDS011;52211;50.154;8.682;2023-02-28T10:12:03;4.33;;;3.90;;
65567;SDS011;52211;50.154;8.682;2023-02-28T10:14:33;4.43;;;3.97;;
65567;SDS011;52211;50.154;8.682;2023-02-28T10:17:08;5.10;;;4.40;;
65567;SDS011;52211;50.154;8.682;2023-02-28T10:22:44;4.27;;;3.90;;
65567;SDS011;52211;50.154;8.682;2023-02-28T10:25:24;4.37;;;3.80;;
65567;SDS011;52211;50.154;8.682;2023-02-28T10:28:13;4.80;;;4.40;;
65567;SDS011;52211;50.154;8.682;2023-02-28T10:30:51;4.67;;;4.17;;
65567;SDS011;52211;50.154;8.682;2023-02-28T10:33:24;4.53;;;4.10;;
65567;SDS011;52211;50.154;8.682;2023-02-28T10:36:01;6.03;;;4.07;;
65567;SDS011;52211;50.154;8.682;2023-02-28T10:38:33;4.57;;;4.17;;
65567;SDS011;52211;50.154;8.682;2023-02-28T10:41:04;3.93;;;3.63;;
65567;SDS011;52211;50.154;8.682;2023-02-28T10:44:20;5.40;;;3.80;;
65567;SDS011;52211;50.154;8.682;2023-02-28T10:46:52;4.13;;;3.73;;
65567;SDS011;52211;50.154;8.682;2023-02-28T10:49:23;4.80;;;4.30;;
65567;SDS011;52211;50.154;8.682;2023-02-28T10:51:56;4.30;;;3.90;;
65567;SDS011;52211;50.154;8.682;2023-02-28T10:54:36;4.40;;;3.50;;
65567;SDS011;52211;50.154;8.682;2023-02-28T10:57:17;4.53;;;4.00;;
65567;SDS011;52211;50.154;8.682;2023-02-28T10:59:53;3.70;;;3.40;;
65567;SDS011;52211;50.154;8.682;2023-02-28T11:02:45;4.20;;;3.80;;
65567;SDS011;52211;50.154;8.682;2023-02-28T11:08:10;3.67;;;3.37;;
65567;SDS011;52211;50.154;8.682;2023-02-28T11:10:48;3.37;;;3.17;;
65567;SDS011;52211;50.154;8.682;2023-02-28T11:13:42;5.40;;;3.40;;
65567;SDS011;52211;50.154;8.682;2023-02-28T11:16:20;4.67;;;3.33;;
65567;SDS011;52211;50.154;8.682;2023-02-28T11:19:00;3.93;;;3.53;;
65567;SDS011;52211;50.154;8.682;2023-02-28T11:21:45;3.70;;;3.10;;
65567;SDS011;52211;50.154;8.682;2023-02-28T11:24:40;3.50;;;3.20;;
65567;SDS011;52211;50.154;8.682;2023-02-28T11:27:26;3.87;;;2.70;;
65567;SDS011;52211;50.154;8.682;2023-02-28T11:30:23;4.13;;;3.30;;
65567;SDS011;52211;50.154;8.682;2023-02-28T11:36:21;3.57;;;3.17;;
65567;SDS011;52211;50.154;8.682;2023-02-28T11:38:53;3.90;;;3.53;;
65567;SDS011;52211;50.154;8.682;2023-02-28T11:53:01;3.63;;;3.33;;
65567;SDS011;52211;50.154;8.682;2023-02-28T11:55:58;4.40;;;3.30;;
65567;SDS011;52211;50.154;8.682;2023-02-28T11:59:14;4.60;;;4.20;;
65567;SDS011;52211;50.154;8.682;2023-02-28T12:08:44;4.63;;;3.97;;
65567;SDS011;52211;50.154;8.682;2023-02-28T12:11:38;4.20;;;3.33;;
65567;SDS011;52211;50.154;8.682;2023-02-28T12:15:18;3.87;;;3.57;;
65567;SDS011;52211;50.154;8.682;2023-02-28T12:28:46;3.83;;;3.37;;
65567;SDS011;52211;50.154;8.682;2023-02-28T12:31:21;3.53;;;3.23;;
65567;SDS011;52211;50.154;8.682;2023-02-28T12:34:05;3.20;;;3.00;;
65567;SDS011;52211;50.154;8.682;2023-02-28T12:36:41;3.57;;;3.30;;
65567;SDS011;52211;50.154;8.682;2023-02-28T12:39:26;3.67;;;3.37;;
65567;SDS011;52211;50.154;8.682;2023-02-28T12:42:28;3.07;;;2.87;;
65567;SDS011;52211;50.154;8.682;2023-02-28T12:45:19;3.50;;;3.20;;
65567;SDS011;52211;50.154;8.682;2023-02-28T12:48:26;3.97;;;3.60;;
65567;SDS011;52211;50.154;8.682;2023-02-28T12:51:05;4.03;;;3.67;;
65567;SDS011;52211;50.154;8.682;2023-02-28T12:56:53;4.47;;;3.73;;
65567;SDS011;52211;50.154;8.682;2023-02-28T12:59:45;3.37;;;3.07;;
65567;SDS011;52211;50.154;8.682;2023-02-28T13:02:51;3.50;;;3.20;;
65567;SDS011;52211;50.154;8.682;2023-02-28T13:09:12;3.63;;;3.33;;
65567;SDS011;52211;50.154;8.682;2023-02-28T13:11:50;3.20;;;3.00;;
65567;SDS011;52211;50.154;8.682;2023-02-28T13:14:24;3.43;;;3.13;;
65567;SDS011;52211;50.154;8.682;2023-02-28T13:17:03;3.33;;;3.03;;
65567;SDS011;52211;50.154;8.682;2023-02-28T13:19:43;3.27;;;3.00;;
65567;SDS011;52211;50.154;8.682;2023-02-28T13:28:07;3.90;;;3.10;;
65567;SDS011;52211;50.154;8.682;2023-02-28T13:33:35;3.40;;;3.10;;
65567;SDS011;52211;50.154;8.682;2023-02-28T13:36:32;3.10;;;2.90;;
65567;SDS011;52211;50.154;8.682;2023-02-28T13:39:44;3.60;;;3.40;;
65567;SDS011;52211;50.154;8.682;2023-02-28T13:42:22;6.77;;;3.67;;
65567;SDS011;52211;50.154;8.682;2023-02-28T13:50:34;3.80;;;3.50;;
65567;SDS011;52211;50.154;8.682;2023-02-28T14:07:20;3.43;;;3.13;;
65567;SDS011;52211;50.154;8.682;2023-02-28T14:09:56;3.97;;;3.67;;
65567;SDS011;52211;50.154;8.682;2023-02-28T14:17:59;3.50;;;3.20;;
65567;SDS011;52211;50.154;8.682;2023-02-28T14:20:39;3.50;;;3.17;;
65567;SDS011;52211;50.154;8.682;2023-02-28T14:23:22;3.73;;;3.43;;
65567;SDS011;52211;50.154;8.682;2023-02-28T14:31:29;3.67;;;3.30;;
65567;SDS011;52211;50.154;8.682;2023-02-28T14:37:01;4.07;;;3.27;;
65567;SDS011;52211;50.154;8.682;2023-02-28T14:39:40;4.07;;;3.67;;
65567;SDS011;52211;50.154;8.682;2023-02-28T14:45:24;3.70;;;3.37;;
65567;SDS011;52211;50.154;8.682;2023-02-28T14:47:57;4.93;;;3.53;;
65567;SDS011;52211;50.154;8.682;2023-02-28T14:50:29;4.03;;;3.63;;
65567;SDS011;52211;50.154;8.682;2023-02-28T14:53:02;4.73;;;4.10;;
65567;SDS011;52211;50.154;8.682;2023-02-28T14:55:31;3.60;;;3.30;;
65567;SDS011;52211;50.154;8.682;2023-02-28T14:58:03;4.83;;;4.33;;
65567;SDS011;52211;50.154;8.682;2023-02-28T15:00:36;4.13;;;3.73;;
65567;SDS011;52211;50.154;8.682;2023-02-28T15:03:24;4.43;;;3.50;;
65567;SDS011;52211;50.154;8.682;2023-02-28T15:05:58;3.93;;;3.63;;
65567;SDS011;52211;50.154;8.682;2023-02-28T15:08:28;4.33;;;3.93;;
65567;SDS011;52211;50.154;8.682;2023-02-28T15:11:04;3.37;;;3.10;;
65567;SDS011;52211;50.154;8.682;2023-02-28T15:13:40;4.63;;;3.73;;
65567;SDS011;52211;50.154;8.682;2023-02-28T15:27:12;4.77;;;4.27;;
65567;SDS011;52211;50.154;8.682;2023-02-28T15:30:11;3.90;;;3.60;;
65567;SDS011;52211;50.154;8.682;2023-02-28T15:33:01;5.50;;;4.30;;
65567;SDS011;52211;50.154;8.682;2023-02-28T15:35:39;4.07;;;3.73;;
65567;SDS011;52211;50.154;8.682;2023-02-28T15:38:14;4.87;;;4.37;;
65567;SDS011;52211;50.154;8.682;2023-02-28T15:40:54;4.07;;;3.67;;
65567;SDS011;52211;50.154;8.682;2023-02-28T15:43:31;5.00;;;3.83;;
65567;SDS011;52211;50.154;8.682;2023-02-28T15:46:07;4.23;;;3.87;;
65567;SDS011;52211;50.154;8.682;2023-02-28T15:48:43;4.73;;;4.33;;
65567;SDS011;52211;50.154;8.682;2023-02-28T15:51:24;5.07;;;4.13;;
65567;SDS011;52211;50.154;8.682;2023-02-28T15:53:58;5.23;;;4.20;;
65567;SDS011;52211;50.154;8.682;2023-02-28T15:56:35;5.80;;;4.50;;
65567;SDS011;52211;50.154;8.682;2023-02-28T15:59:15;6.13;;;3.90;;
65567;SDS011;52211;50.154;8.682;2023-02-28T16:04:36;5.73;;;4.40;;
65567;SDS011;52211;50.154;8.682;2023-02-28T16:07:24;5.80;;;5.00;;
65567;SDS011;52211;50.154;8.682;2023-02-28T16:09:54;4.37;;;3.97;;
65567;SDS011;52211;50.154;8.682;2023-02-28T16:12:30;5.77;;;5.03;;
65567;SDS011;52211;50.154;8.682;2023-02-28T16:15:06;4.40;;;4.00;;
65567;SDS011;52211;50.154;8.682;2023-02-28T16:17:47;4.60;;;4.20;;
65567;SDS011;52211;50.154;8.682;2023-02-28T16:20:24;5.20;;;4.37;;
65567;SDS011;52211;50.154;8.682;2023-02-28T16:22:54;4.83;;;4.13;;
65567;SDS011;52211;50.154;8.682;2023-02-28T16:25:34;6.00;;;4.23;;
65567;SDS011;52211;50.154;8.682;2023-02-28T16:28:31;4.57;;;4.17;;
65567;SDS011;52211;50.154;8.682;2023-02-28T16:31:01;5.70;;;4.73;;
65567;SDS011;52211;50.154;8.682;2023-02-28T16:33:34;5.10;;;4.70;;
65567;SDS011;52211;50.154;8.682;2023-02-28T16:36:06;6.20;;;5.03;;
65567;SDS011;52211;50.154;8.682;2023-02-28T16:38:41;5.57;;;4.97;;
65567;SDS011;52211;50.154;8.682;2023-02-28T16:41:08;7.50;;;5.07;;
65567;SDS011;52211;50.154;8.682;2023-02-28T16:43:49;5.23;;;4.67;;
65567;SDS011;52211;50.154;8.682;2023-02-28T16:46:20;5.30;;;4.80;;
65567;SDS011;52211;50.154;8.682;2023-02-28T16:48:53;5.20;;;4.70;;
65567;SDS011;52211;50.154;8.682;2023-02-28T16:51:22;6.03;;;5.10;;
65567;SDS011;52211;50.154;8.682;2023-02-28T16:53:55;5.00;;;4.60;;
65567;SDS011;52211;50.154;8.682;2023-02-28T16:56:24;5.27;;;4.77;;
65567;SDS011;52211;50.154;8.682;2023-02-28T16:58:51;6.47;;;4.80;;
65567;SDS011;52211;50.154;8.682;2023-02-28T17:01:26;5.70;;;5.10;;
65567;SDS011;52211;50.154;8.682;2023-02-28T17:03:55;6.27;;;4.97;;
65567;SDS011;52211;50.154;8.682;2023-02-28T17:06:23;5.97;;;5.47;;
65567;SDS011;52211;50.154;8.682;2023-02-28T17:08:55;5.23;;;4.73;;
65567;SDS011;52211;50.154;8.682;2023-02-28T17:11:28;5.63;;;5.13;;
65567;SDS011;52211;50.154;8.682;2023-02-28T17:13:57;5.70;;;4.67;;
65567;SDS011;52211;50.154;8.682;2023-02-28T17:16:29;6.40;;;5.43;;
65567;SDS011;52211;50.154;8.682;2023-02-28T17:19:00;6.03;;;5.43;;
65567;SDS011;52211;50.154;8.682;2023-02-28T17:21:32;7.47;;;5.47;;
65567;SDS011;52211;50.154;8.682;2023-02-28T17:24:02;6.57;;;4.87;;
65567;SDS011;52211;50.154;8.682;2023-02-28T17:26:30;5.90;;;5.13;;
65567;SDS011;52211;50.154;8.682;2023-02-28T17:28:59;5.37;;;4.87;;
65567;SDS011;52211;50.154;8.682;2023-02-28T17:31:26;5.37;;;4.87;;
65567;SDS011;52211;50.154;8.682;2023-02-28T17:33:58;6.33;;;5.07;;
65567;SDS011;52211;50.154;8.682;2023-02-28T17:36:27;7.03;;;4.93;;
65567;SDS011;52211;50.154;8.682;2023-02-28T17:38:56;5.87;;;5.27;;
65567;SDS011;52211;50.154;8.682;2023-02-28T17:41:27;6.37;;;5.07;;
65567;SDS011;52211;50.154;8.682;2023-02-28T17:43:58;6.40;;;4.73;;
65567;SDS011;52211;50.154;8.682;2023-02-28T17:46:30;5.73;;;4.83;;
65567;SDS011;52211;50.154;8.682;2023-02-28T17:48:59;5.63;;;5.13;;
65567;SDS011;52211;50.154;8.682;2023-02-28T17:51:27;5.63;;;5.13;;
65567;SDS011;52211;50.154;8.682;2023-02-28T17:53:56;5.57;;;5.03;;
65567;SDS011;52211;50.154;8.682;2023-02-28T17:56:25;6.57;;;5.60;;
65567;SDS011;52211;50.154;8.682;2023-02-28T17:58:54;8.07;;;5.70;;
65567;SDS011;52211;50.154;8.682;2023-02-28T18:01:22;6.50;;;5.83;;
65567;SDS011;52211;50.154;8.682;2023-02-28T18:03:52;7.20;;;5.77;;
65567;SDS011;52211;50.154;8.682;2023-02-28T18:06:25;6.30;;;5.47;;
65567;SDS011;52211;50.154;8.682;2023-02-28T18:09:17;6.90;;;5.30;;